createdAt,value
2022-10-17T00:01:32.967Z,9.10
2022-10-17T00:03:59.548Z,9.05
2022-10-17T00:06:26.128Z,8.60
2022-10-17T00:08:52.702Z,9.32
2022-10-17T00:11:22.187Z,9.02
2022-10-17T00:13:50.594Z,8.43
2022-10-17T00:16:36.866Z,9.13
2022-10-17T00:19:07.149Z,8.60
2022-10-17T00:21:35.044Z,9.85
2022-10-17T00:24:02.001Z,9.15
2022-10-17T00:26:29.624Z,9.40
2022-10-17T00:28:57.201Z,8.88
2022-10-17T00:31:25.044Z,9.23
2022-10-17T00:33:52.652Z,8.55
2022-10-17T00:36:22.731Z,10.05
2022-10-17T00:38:55.728Z,9.30
2022-10-17T00:41:26.590Z,8.35
2022-10-17T00:44:06.774Z,9.38
2022-10-17T00:46:35.546Z,7.85
2022-10-17T00:49:12.436Z,8.60
2022-10-17T00:51:46.387Z,9.10
2022-10-17T00:54:15.946Z,9.75
2022-10-17T00:56:43.375Z,9.05
2022-10-17T00:59:12.174Z,9.30
2022-10-17T01:01:46.858Z,8.40
2022-10-17T01:04:13.563Z,8.47
2022-10-17T01:06:40.123Z,9.10
2022-10-17T01:09:06.671Z,9.35
2022-10-17T01:11:45.535Z,8.75
2022-10-17T01:14:33.443Z,10.13
2022-10-17T01:17:09.414Z,9.97
2022-10-17T01:19:54.597Z,9.13
2022-10-17T01:22:33.753Z,9.75
2022-10-17T01:25:31.005Z,9.32
2022-10-17T01:28:16.024Z,9.30
2022-10-17T01:30:42.560Z,9.07
2022-10-17T01:33:22.293Z,9.10
2022-10-17T01:35:53.971Z,9.65
2022-10-17T01:38:38.023Z,9.10
2022-10-17T01:41:20.474Z,8.88
2022-10-17T01:43:55.685Z,9.80
2022-10-17T01:46:30.066Z,9.73
2022-10-17T01:49:00.551Z,9.15
2022-10-17T01:51:52.413Z,9.55
2022-10-17T01:54:27.380Z,9.50
2022-10-17T01:56:59.032Z,9.57
2022-10-17T01:59:41.979Z,9.10
2022-10-17T02:02:10.356Z,9.55
2022-10-17T02:04:37.489Z,9.68
2022-10-17T02:07:09.330Z,10.15
2022-10-17T02:09:36.259Z,10.17
2022-10-17T02:12:32.105Z,10.18
2022-10-17T02:15:13.881Z,9.60
2022-10-17T02:18:03.380Z,10.75
2022-10-17T02:20:32.977Z,10.60
2022-10-17T02:23:28.698Z,10.30
2022-10-17T02:26:09.937Z,9.63
2022-10-17T02:28:51.630Z,10.50
2022-10-17T02:31:25.676Z,11.60
2022-10-17T02:33:59.607Z,10.88
2022-10-17T02:36:43.177Z,10.13
2022-10-17T02:39:11.236Z,10.98
2022-10-17T02:41:40.163Z,9.38
2022-10-17T02:44:08.484Z,10.75
2022-10-17T02:46:37.270Z,11.15
2022-10-17T02:49:20.451Z,9.37
2022-10-17T02:52:00.003Z,11.60
2022-10-17T02:54:34.327Z,10.38
2022-10-17T02:57:27.217Z,10.40
2022-10-17T02:59:55.682Z,10.40
2022-10-17T03:02:22.302Z,12.00
2022-10-17T03:04:48.930Z,11.20
2022-10-17T03:07:15.653Z,11.07
2022-10-17T03:09:42.271Z,11.13
2022-10-17T03:12:08.938Z,10.90
2022-10-17T03:14:35.627Z,11.50
2022-10-17T03:17:02.230Z,12.98
2022-10-17T03:19:28.786Z,10.43
2022-10-17T03:21:56.637Z,10.43
2022-10-17T03:24:23.261Z,11.88
2022-10-17T03:26:49.888Z,11.83
2022-10-17T03:29:16.540Z,11.38
2022-10-17T03:31:43.096Z,11.95
2022-10-17T03:34:09.720Z,11.20
2022-10-17T03:36:36.279Z,12.55
2022-10-17T03:39:03.087Z,12.13
2022-10-17T03:41:29.658Z,12.75
2022-10-17T03:43:56.229Z,11.27
2022-10-17T03:46:22.831Z,11.20
2022-10-17T03:48:49.407Z,11.48
2022-10-17T03:51:15.980Z,12.60
2022-10-17T03:53:43.028Z,11.35
2022-10-17T03:56:19.897Z,11.13
2022-10-17T03:58:46.532Z,12.05
2022-10-17T04:01:15.434Z,10.90
2022-10-17T04:03:43.160Z,10.93
2022-10-17T04:06:12.365Z,10.40
2022-10-17T04:08:39.613Z,11.02
2022-10-17T04:11:08.336Z,11.57
2022-10-17T04:13:36.115Z,11.60
2022-10-17T04:16:10.139Z,11.27
2022-10-17T04:18:36.752Z,12.80
2022-10-17T04:21:07.478Z,10.63
2022-10-17T04:23:35.043Z,10.88
2022-10-17T04:26:03.354Z,11.40
2022-10-17T04:28:30.803Z,12.70
2022-10-17T04:31:09.910Z,12.52
2022-10-17T04:33:36.475Z,11.45
2022-10-17T04:36:05.981Z,11.93
2022-10-17T04:38:33.912Z,13.10
2022-10-17T04:41:03.127Z,10.70
2022-10-17T04:43:35.062Z,11.93
2022-10-17T04:46:03.983Z,10.77
2022-10-17T04:48:30.658Z,10.85
2022-10-17T04:51:02.915Z,10.18
2022-10-17T04:53:32.156Z,11.27
2022-10-17T04:55:58.725Z,11.38
2022-10-17T04:58:25.480Z,11.52
2022-10-17T05:00:52.135Z,10.85
2022-10-17T05:03:18.737Z,10.75
2022-10-17T05:05:45.299Z,11.23
2022-10-17T05:08:13.061Z,10.85
2022-10-17T05:10:41.991Z,10.90
2022-10-17T05:13:09.630Z,10.63
2022-10-17T05:15:37.411Z,10.75
2022-10-17T05:18:05.174Z,10.27
2022-10-17T05:20:32.143Z,10.27
2022-10-17T05:22:59.735Z,10.18
2022-10-17T05:25:26.593Z,9.73
2022-10-17T05:27:54.214Z,10.77
2022-10-17T05:30:20.985Z,11.00
2022-10-17T05:32:47.565Z,10.88
2022-10-17T05:35:14.159Z,11.40
2022-10-17T05:37:40.716Z,10.40
2022-10-17T05:40:07.962Z,10.45
2022-10-17T05:42:34.715Z,10.63
2022-10-17T05:45:01.321Z,10.23
2022-10-17T05:47:28.225Z,11.60
2022-10-17T05:49:55.122Z,10.82
2022-10-17T05:52:21.696Z,9.63
2022-10-17T05:54:48.249Z,9.33
2022-10-17T05:57:14.875Z,11.93
2022-10-17T05:59:41.430Z,9.88
2022-10-17T06:02:11.182Z,9.95
2022-10-17T06:04:37.933Z,9.35
2022-10-17T06:07:05.082Z,10.23
2022-10-17T06:09:31.653Z,9.82
2022-10-17T06:11:58.227Z,9.93
2022-10-17T06:14:24.840Z,9.10
2022-10-17T06:16:51.395Z,10.48
2022-10-17T06:19:18.103Z,9.90
2022-10-17T06:21:44.670Z,10.82
2022-10-17T06:24:11.344Z,10.90
2022-10-17T06:26:37.930Z,9.27
2022-10-17T06:29:04.561Z,9.45
2022-10-17T06:31:31.199Z,10.20
2022-10-17T06:33:57.739Z,9.52
2022-10-17T06:36:24.395Z,10.52
2022-10-17T06:38:51.003Z,9.95
2022-10-17T06:41:19.273Z,10.00
2022-10-17T06:43:47.063Z,9.70
2022-10-17T06:46:15.652Z,10.30
2022-10-17T06:48:42.386Z,10.32
2022-10-17T06:51:11.976Z,10.68
2022-10-17T06:53:40.134Z,10.18
2022-10-17T06:56:08.048Z,9.80
2022-10-17T06:58:39.033Z,9.80
2022-10-17T07:03:35.921Z,9.15
2022-10-17T07:06:03.461Z,10.38
2022-10-17T07:08:30.139Z,9.57
2022-10-17T07:10:57.417Z,10.43
2022-10-17T07:13:24.147Z,9.80
2022-10-17T07:15:50.869Z,10.30
2022-10-17T07:18:17.555Z,11.00
2022-10-17T07:20:44.120Z,10.10
2022-10-17T07:23:10.671Z,10.27
2022-10-17T07:25:40.067Z,9.40
2022-10-17T07:28:06.908Z,9.18
2022-10-17T07:30:33.756Z,9.50
2022-10-17T07:33:00.319Z,9.60
2022-10-17T07:35:26.929Z,10.32
2022-10-17T07:37:53.483Z,9.75
2022-10-17T07:40:20.053Z,9.23
2022-10-17T07:42:46.731Z,9.80
2022-10-17T07:45:13.385Z,9.87
2022-10-17T07:47:39.944Z,9.35
2022-10-17T07:50:07.081Z,8.90
2022-10-17T07:52:34.016Z,9.05
2022-10-17T07:55:00.662Z,8.88
2022-10-17T07:57:27.285Z,8.70
2022-10-17T07:59:54.411Z,8.60
2022-10-17T08:02:24.026Z,8.80
2022-10-17T08:04:51.371Z,8.60
2022-10-17T08:07:22.084Z,8.20
2022-10-17T08:09:50.888Z,8.33
2022-10-17T08:12:17.947Z,7.60
2022-10-17T08:14:44.618Z,8.07
2022-10-17T08:17:11.225Z,8.38
2022-10-17T08:19:40.874Z,8.30
2022-10-17T08:22:08.207Z,8.67
2022-10-17T08:24:35.358Z,8.50
2022-10-17T08:27:02.063Z,8.38
2022-10-17T08:29:28.703Z,8.38
2022-10-17T08:32:00.994Z,8.32
2022-10-17T08:34:28.598Z,8.63
2022-10-17T08:36:55.203Z,9.00
2022-10-17T08:39:21.843Z,9.27
2022-10-17T08:41:56.499Z,8.77
2022-10-17T08:44:57.219Z,9.43
2022-10-17T08:47:37.382Z,9.57
2022-10-17T08:50:07.779Z,8.75
2022-10-17T08:52:37.938Z,8.80
2022-10-17T08:55:13.986Z,9.02
2022-10-17T08:57:40.683Z,8.07
2022-10-17T09:00:20.881Z,9.13
2022-10-17T09:03:21.851Z,9.20
2022-10-17T09:05:59.137Z,8.95
2022-10-17T09:08:46.940Z,9.35
2022-10-17T09:11:31.596Z,9.18
2022-10-17T09:14:25.059Z,10.33
2022-10-17T09:17:19.809Z,8.82
2022-10-17T09:19:56.964Z,9.10
2022-10-17T09:22:28.200Z,9.57
2022-10-17T09:24:59.194Z,8.27
2022-10-17T09:27:48.534Z,9.13
2022-10-17T09:30:51.806Z,9.13
2022-10-17T09:33:34.630Z,8.73
2022-10-17T09:36:04.851Z,10.15
2022-10-17T09:38:39.378Z,9.45
2022-10-17T09:41:32.125Z,9.90
2022-10-17T09:43:59.291Z,9.50
2022-10-17T09:46:38.898Z,9.70
2022-10-17T09:49:17.515Z,9.73
2022-10-17T09:51:44.410Z,9.25
2022-10-17T09:54:25.404Z,8.13
2022-10-17T09:57:03.907Z,9.27
2022-10-17T09:59:36.655Z,9.40
2022-10-17T10:02:14.601Z,8.85
2022-10-17T10:05:06.935Z,8.85
2022-10-17T10:07:37.537Z,8.80
2022-10-17T10:10:07.573Z,9.10
2022-10-17T10:12:37.923Z,8.90
2022-10-17T10:15:35.521Z,8.50
2022-10-17T10:18:02.205Z,8.82
2022-10-17T10:20:35.122Z,9.00
2022-10-17T10:23:22.048Z,8.70
2022-10-17T10:25:58.070Z,8.25
2022-10-17T10:28:28.368Z,8.50
2022-10-17T10:30:57.226Z,8.18
2022-10-17T10:33:27.621Z,8.30
2022-10-17T10:36:03.473Z,8.10
2022-10-17T10:38:32.592Z,8.30
2022-10-17T10:41:05.574Z,8.90
2022-10-17T10:43:42.003Z,8.60
2022-10-17T10:46:23.372Z,8.50
2022-10-17T10:48:58.303Z,7.45
2022-10-17T10:51:30.297Z,8.32
2022-10-17T10:53:59.556Z,7.55
2022-10-17T10:56:41.395Z,8.07
2022-10-17T10:59:20.551Z,6.97
2022-10-17T11:02:26.396Z,7.80
2022-10-17T11:05:11.202Z,6.35
2022-10-17T11:07:49.987Z,6.57
2022-10-17T11:10:30.076Z,6.90
2022-10-17T11:13:11.575Z,7.60
2022-10-17T11:15:51.651Z,6.65
2022-10-17T11:18:28.136Z,6.97
2022-10-17T11:21:24.449Z,8.30
2022-10-17T11:24:09.345Z,8.73
2022-10-17T11:26:43.051Z,7.10
2022-10-17T11:29:12.336Z,7.53
2022-10-17T11:31:44.385Z,7.72
2022-10-17T11:34:20.021Z,7.90
2022-10-17T11:36:50.600Z,7.78
2022-10-17T11:39:38.427Z,7.77
2022-10-17T11:42:21.328Z,7.55
2022-10-17T11:44:53.172Z,7.95
2022-10-17T11:47:19.744Z,8.38
2022-10-17T11:49:55.831Z,8.13
2022-10-17T11:52:55.980Z,7.20
2022-10-17T11:55:26.881Z,7.47
2022-10-17T11:58:22.139Z,7.32
2022-10-17T12:01:04.657Z,7.25
2022-10-17T12:03:54.392Z,7.60
2022-10-17T12:06:35.991Z,8.17
2022-10-17T12:09:17.332Z,8.45
2022-10-17T12:11:56.584Z,8.90
2022-10-17T12:14:41.394Z,9.55
2022-10-17T12:17:38.919Z,8.50
2022-10-17T12:20:21.315Z,8.40
2022-10-17T12:22:50.163Z,8.25
2022-10-17T12:25:42.615Z,8.27
2022-10-17T12:28:22.143Z,8.23
2022-10-17T12:30:53.554Z,6.90
2022-10-17T12:33:23.459Z,7.13
2022-10-17T12:35:51.645Z,7.20
2022-10-17T12:38:18.200Z,7.75
2022-10-17T12:40:48.982Z,8.07
2022-10-17T12:43:15.756Z,6.93
2022-10-17T12:45:55.320Z,7.20
2022-10-17T12:48:33.917Z,6.18
2022-10-17T12:54:15.949Z,5.05
2022-10-17T12:56:47.791Z,5.05
2022-10-17T12:59:17.301Z,4.60
2022-10-17T13:01:47.846Z,4.25
2022-10-17T13:04:15.164Z,4.45
2022-10-17T13:06:53.798Z,4.28
2022-10-17T13:09:43.412Z,4.07
2022-10-17T13:12:19.956Z,3.80
2022-10-17T13:14:47.774Z,4.60
2022-10-17T13:17:30.560Z,4.68
2022-10-17T13:19:58.248Z,5.30
2022-10-17T13:22:29.129Z,5.10
2022-10-17T13:25:08.555Z,4.50
2022-10-17T13:27:36.465Z,4.72
2022-10-17T13:30:20.531Z,5.10
2022-10-17T13:32:47.077Z,4.88
2022-10-17T13:35:24.408Z,5.15
2022-10-17T13:37:54.082Z,5.97
2022-10-17T13:43:18.554Z,5.13
2022-10-17T13:45:53.875Z,5.30
2022-10-17T13:48:26.592Z,5.35
2022-10-17T13:51:02.457Z,5.40
2022-10-17T13:53:36.488Z,6.45
2022-10-17T13:56:28.019Z,6.07
2022-10-17T13:59:03.517Z,6.60
2022-10-17T14:01:30.894Z,6.95
2022-10-17T14:04:08.758Z,6.70
2022-10-17T14:06:45.045Z,6.63
2022-10-17T14:09:33.011Z,7.55
2022-10-17T14:12:11.156Z,7.38
2022-10-17T14:15:05.159Z,7.63
2022-10-17T14:17:29.082Z,8.67
2022-10-17T14:20:26.535Z,7.43
2022-10-17T14:23:04.444Z,7.90
2022-10-17T14:25:39.179Z,8.77
2022-10-17T14:28:15.787Z,8.30
2022-10-17T14:31:03.246Z,8.07
2022-10-17T14:33:31.785Z,9.10
2022-10-17T14:36:00.770Z,8.88
2022-10-17T14:38:29.128Z,8.15
2022-10-17T14:41:30.296Z,8.85
2022-10-17T14:43:53.120Z,8.47
2022-10-17T14:46:19.906Z,8.70
2022-10-17T14:48:51.631Z,8.20
2022-10-17T14:51:19.020Z,8.65
2022-10-17T14:54:05.311Z,8.38
2022-10-17T14:56:43.086Z,8.50
2022-10-17T14:59:21.393Z,7.55
2022-10-17T15:01:52.183Z,8.10
2022-10-17T15:04:18.782Z,8.02
2022-10-17T15:06:45.353Z,7.95
2022-10-17T15:09:12.292Z,8.13
2022-10-17T15:11:38.954Z,7.85
2022-10-17T15:14:05.550Z,7.93
2022-10-17T15:16:34.363Z,7.82
2022-10-17T15:19:01.007Z,7.13
2022-10-17T15:21:38.404Z,7.23
2022-10-17T15:24:07.335Z,6.63
2022-10-17T15:26:34.762Z,8.73
2022-10-17T15:29:01.640Z,6.93
2022-10-17T15:31:31.120Z,6.68
2022-10-17T15:33:57.743Z,7.00
2022-10-17T15:36:29.197Z,7.80
2022-10-17T15:39:00.536Z,6.82
2022-10-17T15:41:29.519Z,6.93
2022-10-17T15:43:56.391Z,6.38
2022-10-17T15:46:28.981Z,6.33
2022-10-17T15:48:57.247Z,7.15
2022-10-17T15:51:23.974Z,6.65
2022-10-17T15:53:50.641Z,6.55
2022-10-17T15:56:24.807Z,6.75
2022-10-17T15:58:51.607Z,6.60
2022-10-17T16:01:26.176Z,6.65
2022-10-17T16:03:52.964Z,6.22
2022-10-17T16:06:20.864Z,6.72
2022-10-17T16:08:48.340Z,6.28
2022-10-17T16:11:24.169Z,5.90
2022-10-17T16:13:53.528Z,6.15
2022-10-17T16:16:22.009Z,6.68
2022-10-17T16:18:49.222Z,7.15
2022-10-17T16:21:17.226Z,6.65
2022-10-17T16:23:44.154Z,6.70
2022-10-17T16:26:14.038Z,6.15
2022-10-17T16:28:46.008Z,6.63
2022-10-17T16:31:22.487Z,6.10
2022-10-17T16:33:51.256Z,5.93
2022-10-17T16:36:18.307Z,6.80
2022-10-17T16:38:45.833Z,5.80
2022-10-17T16:41:35.643Z,6.35
2022-10-17T16:44:04.971Z,5.93
2022-10-17T16:46:33.019Z,5.05
2022-10-17T16:48:59.870Z,5.23
2022-10-17T16:51:28.945Z,5.53
2022-10-17T16:53:56.951Z,5.25
2022-10-17T16:56:24.754Z,4.35
2022-10-17T16:58:51.839Z,4.45
2022-10-17T17:01:20.795Z,4.63
2022-10-17T17:03:48.116Z,4.55
2022-10-17T17:06:24.180Z,5.40
2022-10-17T17:08:51.401Z,5.05
2022-10-17T17:11:19.537Z,4.55
2022-10-17T17:13:46.659Z,4.87
2022-10-17T17:16:18.400Z,4.80
2022-10-17T17:18:46.094Z,5.70
2022-10-17T17:21:13.932Z,5.40
2022-10-17T17:23:42.386Z,5.50
2022-10-17T17:26:18.273Z,5.27
2022-10-17T17:28:45.252Z,4.93
2022-10-17T17:31:25.251Z,5.22
2022-10-17T17:36:27.961Z,6.40
2022-10-17T17:38:56.706Z,6.30
2022-10-17T17:41:24.904Z,6.20
2022-10-17T17:43:51.985Z,6.50
2022-10-17T17:46:20.622Z,6.90
2022-10-17T17:48:48.918Z,7.40
2022-10-17T17:51:18.144Z,6.83
2022-10-17T17:53:44.931Z,7.35
2022-10-17T17:56:17.820Z,7.25
2022-10-17T17:58:45.824Z,8.02
2022-10-17T18:01:17.881Z,8.35
2022-10-17T18:03:44.839Z,8.13
2022-10-17T18:06:12.161Z,8.32
2022-10-17T18:08:39.248Z,8.45
2022-10-17T18:11:05.992Z,7.90
2022-10-17T18:13:32.686Z,8.40
2022-10-17T18:16:01.668Z,9.87
2022-10-17T18:18:29.756Z,9.00
2022-10-17T18:20:56.837Z,9.00
2022-10-17T18:23:23.845Z,8.90
2022-10-17T18:25:55.987Z,9.85
2022-10-17T18:28:23.546Z,9.07
2022-10-17T18:30:50.441Z,8.80
2022-10-17T18:33:17.123Z,9.20
2022-10-17T18:35:43.722Z,9.00
2022-10-17T18:38:10.342Z,8.90
2022-10-17T18:40:37.123Z,9.10
2022-10-17T18:43:04.245Z,9.40
2022-10-17T18:45:30.849Z,8.68
2022-10-17T18:47:57.998Z,9.00
2022-10-17T18:50:25.216Z,10.55
2022-10-17T18:52:51.843Z,9.47
2022-10-17T18:55:20.600Z,9.10
2022-10-17T18:57:51.031Z,10.60
2022-10-17T19:00:17.952Z,9.82
2022-10-17T19:02:44.764Z,10.75
2022-10-17T19:05:11.422Z,10.27
2022-10-17T19:07:38.067Z,10.63
2022-10-17T19:10:05.053Z,11.43
2022-10-17T19:12:31.951Z,11.35
2022-10-17T19:14:58.636Z,10.73
2022-10-17T19:17:25.351Z,12.27
2022-10-17T19:19:53.246Z,13.65
2022-10-17T19:22:19.905Z,12.32
2022-10-17T19:24:46.636Z,12.98
2022-10-17T19:27:13.361Z,12.30
2022-10-17T19:29:43.392Z,12.80
2022-10-17T19:32:15.636Z,13.88
2022-10-17T19:34:44.676Z,12.95
2022-10-17T19:37:11.325Z,14.95
2022-10-17T19:39:38.085Z,15.85
2022-10-17T19:42:06.868Z,14.83
2022-10-17T19:44:37.019Z,15.85
2022-10-17T19:47:11.484Z,14.00
2022-10-17T19:49:39.327Z,16.55
2022-10-17T19:52:05.958Z,17.55
2022-10-17T19:54:32.641Z,18.73
2022-10-17T19:56:59.198Z,17.05
2022-10-17T19:59:26.553Z,17.17
2022-10-17T20:01:53.184Z,18.33
2022-10-17T20:04:23.183Z,18.27
2022-10-17T20:06:50.226Z,19.53
2022-10-17T20:09:17.483Z,17.65
2022-10-17T20:11:44.283Z,17.73
2022-10-17T20:14:10.996Z,20.35
2022-10-17T20:16:37.629Z,18.90
2022-10-17T20:19:10.207Z,19.57
2022-10-17T20:21:39.408Z,18.95
2022-10-17T20:24:09.746Z,19.13
2022-10-17T20:26:38.596Z,19.45
2022-10-17T20:29:11.246Z,19.85
2022-10-17T20:31:38.726Z,19.23
2022-10-17T20:34:06.157Z,19.05
2022-10-17T20:36:37.113Z,19.95
2022-10-17T20:39:05.349Z,19.35
2022-10-17T20:41:34.386Z,18.90
2022-10-17T20:44:02.049Z,18.17
2022-10-17T20:46:36.836Z,18.33
2022-10-17T20:49:08.664Z,18.45
2022-10-17T20:51:35.974Z,19.13
2022-10-17T20:54:03.487Z,19.00
2022-10-17T20:56:32.472Z,18.43
2022-10-17T20:59:04.714Z,17.60
2022-10-17T21:01:32.797Z,18.00
2022-10-17T21:04:10.640Z,18.45
2022-10-17T21:06:51.229Z,19.48
2022-10-17T21:09:18.204Z,18.63
2022-10-17T21:11:44.791Z,18.58
2022-10-17T21:14:12.201Z,19.02
2022-10-17T21:16:41.156Z,16.83
2022-10-17T21:19:07.861Z,18.42
2022-10-17T21:21:40.124Z,17.90
2022-10-17T21:24:12.943Z,18.17
2022-10-17T21:26:41.040Z,18.83
2022-10-17T21:29:08.326Z,17.85
2022-10-17T21:31:37.568Z,18.58
2022-10-17T21:34:11.526Z,19.37
2022-10-17T21:36:38.495Z,17.35
2022-10-17T21:39:05.665Z,17.23
2022-10-17T21:41:32.878Z,18.85
2022-10-17T21:44:06.793Z,18.05
2022-10-17T21:46:33.994Z,18.50
2022-10-17T21:49:01.159Z,17.73
2022-10-17T21:51:28.342Z,18.42
2022-10-17T21:53:56.543Z,17.40
2022-10-17T21:56:28.027Z,17.60
2022-10-17T21:58:55.187Z,19.10
2022-10-17T22:01:28.199Z,18.42
2022-10-17T22:03:57.374Z,18.45
2022-10-17T22:06:39.335Z,17.67
2022-10-17T22:09:15.579Z,18.25
2022-10-17T22:11:45.349Z,17.60
2022-10-17T22:14:14.657Z,18.67
2022-10-17T22:16:41.823Z,16.85
2022-10-17T22:19:08.859Z,16.90
2022-10-17T22:21:36.570Z,16.83
2022-10-17T22:24:06.185Z,16.40
2022-10-17T22:26:35.074Z,16.45
2022-10-17T22:29:02.551Z,16.52
2022-10-17T22:31:29.191Z,17.65
2022-10-17T22:33:56.232Z,17.77
2022-10-17T22:36:23.551Z,18.27
2022-10-17T22:38:50.235Z,17.02
2022-10-17T22:41:17.200Z,17.30
2022-10-17T22:43:43.830Z,17.73
2022-10-17T22:46:12.933Z,16.70
2022-10-17T22:48:39.491Z,16.57
2022-10-17T22:51:06.131Z,16.23
2022-10-17T22:53:32.697Z,17.05
2022-10-17T22:56:01.385Z,14.88
2022-10-17T22:58:29.522Z,16.65
2022-10-17T23:00:56.649Z,16.73
2022-10-17T23:03:24.583Z,18.55
2022-10-17T23:05:51.716Z,16.90
2022-10-17T23:08:18.768Z,19.65
2022-10-17T23:10:46.323Z,15.05
2022-10-17T23:13:14.027Z,17.20
2022-10-17T23:15:41.033Z,16.23
2022-10-17T23:18:09.606Z,15.13
2022-10-17T23:20:37.064Z,15.23
2022-10-17T23:23:04.074Z,17.35
2022-10-17T23:25:30.801Z,14.87
2022-10-17T23:27:57.331Z,16.40
2022-10-17T23:30:23.980Z,15.65
2022-10-17T23:32:50.597Z,16.10
2022-10-17T23:35:17.212Z,18.40
2022-10-17T23:37:43.790Z,16.47
2022-10-17T23:40:11.322Z,15.52
2022-10-17T23:42:37.896Z,14.45
2022-10-17T23:45:04.894Z,15.35
2022-10-17T23:47:31.691Z,15.32
2022-10-17T23:49:58.606Z,14.87
2022-10-17T23:52:25.292Z,14.45
2022-10-17T23:54:51.873Z,14.75
2022-10-17T23:57:18.500Z,15.50
2022-10-17T23:59:45.260Z,14.57
